createdAt,value
2022-11-06T00:00:42.355Z,4.53
2022-11-06T00:03:10.829Z,4.30
2022-11-06T00:05:59.659Z,5.00
2022-11-06T00:08:30.791Z,3.90
2022-11-06T00:10:58.976Z,4.43
2022-11-06T00:13:27.360Z,4.10
2022-11-06T00:15:56.686Z,4.60
2022-11-06T00:18:28.402Z,4.60
2022-11-06T00:20:56.479Z,4.40
2022-11-06T00:23:24.560Z,4.00
2022-11-06T00:25:56.291Z,4.10
2022-11-06T00:28:24.325Z,4.30
2022-11-06T00:30:52.286Z,4.73
2022-11-06T00:33:21.638Z,4.67
2022-11-06T00:35:49.642Z,4.40
2022-11-06T00:38:17.592Z,4.13
2022-11-06T00:40:45.552Z,4.00
2022-11-06T00:43:13.694Z,4.23
2022-11-06T00:45:41.690Z,3.87
2022-11-06T00:48:09.741Z,4.17
2022-11-06T00:50:39.229Z,4.10
2022-11-06T00:53:07.261Z,4.53
2022-11-06T00:55:35.275Z,4.20
2022-11-06T00:58:03.238Z,3.50
2022-11-06T01:00:31.694Z,4.40
2022-11-06T01:02:59.692Z,3.93
2022-11-06T01:05:27.915Z,4.13
2022-11-06T01:07:57.256Z,4.67
2022-11-06T01:10:25.209Z,4.20
2022-11-06T01:12:53.186Z,4.10
2022-11-06T01:15:21.135Z,3.40
2022-11-06T01:17:49.094Z,3.03
2022-11-06T01:20:17.161Z,3.70
2022-11-06T01:22:45.152Z,3.40
2022-11-06T01:25:14.457Z,3.00
2022-11-06T01:27:42.464Z,2.43
2022-11-06T01:30:12.249Z,3.83
2022-11-06T01:32:40.220Z,3.10
2022-11-06T01:35:09.102Z,3.63
2022-11-06T01:37:37.094Z,3.17
2022-11-06T01:40:06.122Z,3.13
2022-11-06T01:42:35.440Z,3.43
2022-11-06T01:45:26.116Z,2.80
2022-11-06T01:47:54.137Z,3.40
2022-11-06T01:50:22.158Z,3.17
2022-11-06T01:52:52.012Z,3.60
2022-11-06T01:55:25.328Z,2.93
2022-11-06T01:57:56.722Z,4.00
2022-11-06T02:00:26.074Z,2.40
2022-11-06T02:02:54.169Z,2.57
2022-11-06T02:05:22.347Z,3.40
2022-11-06T02:07:50.377Z,2.67
2022-11-06T02:10:18.559Z,2.80
2022-11-06T02:12:59.217Z,2.80
2022-11-06T02:15:38.924Z,3.20
2022-11-06T02:18:47.836Z,3.23
2022-11-06T02:21:41.718Z,3.20
2022-11-06T02:24:38.764Z,3.00
2022-11-06T02:27:13.942Z,2.90
2022-11-06T02:29:49.040Z,2.77
2022-11-06T02:32:22.443Z,2.07
2022-11-06T02:34:54.411Z,2.90
2022-11-06T02:37:30.413Z,2.70
2022-11-06T02:40:02.074Z,2.93
2022-11-06T02:42:33.220Z,3.20
2022-11-06T02:45:03.055Z,2.50
2022-11-06T02:47:33.848Z,2.57
2022-11-06T02:50:08.019Z,3.13
2022-11-06T02:52:41.615Z,2.30
2022-11-06T02:55:14.708Z,2.40
2022-11-06T02:57:49.174Z,2.43
2022-11-06T03:00:19.020Z,2.70
2022-11-06T03:02:54.153Z,2.93
2022-11-06T03:05:28.743Z,2.00
2022-11-06T03:08:03.915Z,2.37
2022-11-06T03:10:40.850Z,2.37
2022-11-06T03:13:36.251Z,2.33
2022-11-06T03:16:10.169Z,2.60
2022-11-06T03:18:44.848Z,2.70
2022-11-06T03:21:21.556Z,2.30
2022-11-06T03:23:56.887Z,1.97
2022-11-06T03:26:33.314Z,2.10
2022-11-06T03:29:11.958Z,2.47
2022-11-06T03:31:49.795Z,2.43
2022-11-06T03:34:27.651Z,2.00
2022-11-06T03:37:04.030Z,2.37
2022-11-06T03:39:37.421Z,1.70
2022-11-06T03:42:07.675Z,2.17
2022-11-06T03:44:41.933Z,2.37
2022-11-06T03:47:14.118Z,2.70
2022-11-06T03:49:48.171Z,2.80
2022-11-06T03:52:22.749Z,2.70
2022-11-06T03:54:55.526Z,2.03
2022-11-06T03:57:29.396Z,2.10
2022-11-06T04:00:02.555Z,2.30
2022-11-06T04:02:32.761Z,2.00
2022-11-06T04:05:04.456Z,2.50
2022-11-06T04:07:37.760Z,2.07
2022-11-06T04:10:27.951Z,2.33
2022-11-06T04:13:15.412Z,1.90
2022-11-06T04:15:50.302Z,1.67
2022-11-06T04:18:20.614Z,2.30
2022-11-06T04:21:16.165Z,2.20
2022-11-06T04:24:13.381Z,2.20
2022-11-06T04:26:49.613Z,1.83
2022-11-06T04:29:28.382Z,1.90
2022-11-06T04:32:07.050Z,2.20
2022-11-06T04:34:44.923Z,2.13
2022-11-06T04:37:21.815Z,2.03
2022-11-06T04:39:57.959Z,2.33
2022-11-06T04:42:34.835Z,2.00
2022-11-06T04:45:06.195Z,1.80
2022-11-06T04:47:38.303Z,1.53
2022-11-06T04:50:09.122Z,2.00
2022-11-06T04:52:39.206Z,1.80
2022-11-06T04:55:08.469Z,1.97
2022-11-06T04:57:36.462Z,1.90
2022-11-06T05:00:07.387Z,2.20
2022-11-06T05:02:36.686Z,2.33
2022-11-06T05:05:05.404Z,1.80
2022-11-06T05:07:33.447Z,1.83
2022-11-06T05:10:01.426Z,1.80
2022-11-06T05:12:29.380Z,2.27
2022-11-06T05:14:57.351Z,1.60
2022-11-06T05:17:25.290Z,2.43
2022-11-06T05:19:54.600Z,1.77
2022-11-06T05:22:39.882Z,2.17
2022-11-06T05:25:08.995Z,2.30
2022-11-06T05:27:36.999Z,2.20
2022-11-06T05:30:05.835Z,1.67
2022-11-06T05:32:33.813Z,2.27
2022-11-06T05:35:03.096Z,1.43
2022-11-06T05:37:31.079Z,2.03
2022-11-06T05:39:59.020Z,1.87
2022-11-06T05:42:27.003Z,1.63
2022-11-06T05:44:55.002Z,2.23
2022-11-06T05:47:23.263Z,2.43
2022-11-06T05:49:51.268Z,1.67
2022-11-06T05:52:20.580Z,1.80
2022-11-06T05:54:48.536Z,1.97
2022-11-06T05:57:16.576Z,2.00
2022-11-06T05:59:44.915Z,1.63
2022-11-06T06:02:12.945Z,1.73
2022-11-06T06:04:41.151Z,1.80
2022-11-06T06:07:09.625Z,1.90
2022-11-06T06:09:38.912Z,2.20
2022-11-06T06:12:07.639Z,1.90
2022-11-06T06:14:35.561Z,1.60
2022-11-06T06:17:03.503Z,1.70
2022-11-06T06:19:31.543Z,1.50
2022-11-06T06:21:59.605Z,1.57
2022-11-06T06:24:28.618Z,1.37
2022-11-06T06:26:57.948Z,2.00
2022-11-06T06:29:25.907Z,1.80
2022-11-06T06:31:54.318Z,1.87
2022-11-06T06:34:22.353Z,2.03
2022-11-06T06:36:51.582Z,1.87
2022-11-06T06:39:20.266Z,2.07
2022-11-06T06:41:48.866Z,2.00
2022-11-06T06:44:18.465Z,1.97
2022-11-06T06:46:46.435Z,1.67
2022-11-06T06:49:14.427Z,1.50
2022-11-06T06:51:42.411Z,1.70
2022-11-06T06:54:10.499Z,1.60
2022-11-06T06:56:38.441Z,1.73
2022-11-06T06:59:06.490Z,1.93
2022-11-06T07:01:35.870Z,2.13
2022-11-06T07:04:04.604Z,1.50
2022-11-06T07:06:32.746Z,1.37
2022-11-06T07:09:00.738Z,1.73
2022-11-06T07:11:28.650Z,1.77
2022-11-06T07:13:56.628Z,1.40
2022-11-06T07:16:25.251Z,1.50
2022-11-06T07:18:54.598Z,1.40
2022-11-06T07:21:22.903Z,1.17
2022-11-06T07:23:50.895Z,2.23
2022-11-06T07:26:18.894Z,1.67
2022-11-06T07:28:46.928Z,1.50
2022-11-06T07:31:14.889Z,1.17
2022-11-06T07:33:43.200Z,1.43
2022-11-06T07:36:14.057Z,1.60
2022-11-06T07:38:43.686Z,1.53
2022-11-06T07:41:14.031Z,1.30
2022-11-06T07:43:43.333Z,1.40
2022-11-06T07:46:13.872Z,1.50
2022-11-06T07:48:42.155Z,1.43
2022-11-06T07:51:12.639Z,1.50
2022-11-06T07:53:41.186Z,1.53
2022-11-06T07:56:09.760Z,1.53
2022-11-06T07:58:38.559Z,1.60
2022-11-06T08:01:07.528Z,1.63
2022-11-06T08:03:35.663Z,1.73
2022-11-06T08:06:05.822Z,1.40
2022-11-06T08:08:35.170Z,1.73
2022-11-06T08:11:03.944Z,1.57
2022-11-06T08:13:33.829Z,1.50
2022-11-06T08:16:06.051Z,1.60
2022-11-06T08:18:34.579Z,1.37
2022-11-06T08:21:02.817Z,1.20
2022-11-06T08:23:30.827Z,1.57
2022-11-06T08:26:02.352Z,1.57
2022-11-06T08:28:30.838Z,1.90
2022-11-06T08:30:58.815Z,1.83
2022-11-06T08:33:26.782Z,1.67
2022-11-06T08:35:54.726Z,2.00
2022-11-06T08:38:22.699Z,2.10
2022-11-06T08:40:53.579Z,1.90
2022-11-06T08:43:26.291Z,1.47
2022-11-06T08:45:54.329Z,1.70
2022-11-06T08:48:22.295Z,1.30
2022-11-06T08:50:50.238Z,1.70
2022-11-06T08:53:18.461Z,1.40
2022-11-06T08:55:46.738Z,0.93
2022-11-06T08:58:14.981Z,1.43
2022-11-06T09:00:44.765Z,1.40
2022-11-06T09:03:17.776Z,1.20
2022-11-06T09:05:46.276Z,2.00
2022-11-06T09:08:14.889Z,1.20
2022-11-06T09:10:44.120Z,1.80
2022-11-06T09:13:13.102Z,1.70
2022-11-06T09:15:41.558Z,1.67
2022-11-06T09:18:12.543Z,2.27
2022-11-06T09:20:40.556Z,1.57
2022-11-06T09:23:10.989Z,1.53
2022-11-06T09:25:39.240Z,1.73
2022-11-06T09:28:07.260Z,1.70
2022-11-06T09:30:35.251Z,2.57
2022-11-06T09:33:06.171Z,2.20
2022-11-06T09:35:38.538Z,2.10
2022-11-06T09:38:08.599Z,2.10
2022-11-06T09:40:39.605Z,2.10
2022-11-06T09:43:43.054Z,2.40
2022-11-06T09:46:20.689Z,2.20
2022-11-06T09:48:56.474Z,2.03
2022-11-06T09:51:37.863Z,2.53
2022-11-06T09:54:13.977Z,2.10
2022-11-06T09:56:43.370Z,2.10
2022-11-06T09:59:15.919Z,2.10
2022-11-06T10:01:48.736Z,2.50
2022-11-06T10:04:37.393Z,2.87
2022-11-06T10:07:19.015Z,2.20
2022-11-06T10:09:46.959Z,2.97
2022-11-06T10:12:25.634Z,2.00
2022-11-06T10:15:07.059Z,1.90
2022-11-06T10:17:48.983Z,2.20
2022-11-06T10:20:26.883Z,1.57
2022-11-06T10:23:05.973Z,2.03
2022-11-06T10:25:47.712Z,1.93
2022-11-06T10:28:49.006Z,2.37
2022-11-06T10:31:28.391Z,3.70
2022-11-06T10:34:01.875Z,2.43
2022-11-06T10:36:37.019Z,2.50
2022-11-06T10:39:13.933Z,3.60
2022-11-06T10:41:44.821Z,2.50
2022-11-06T10:44:22.536Z,3.57
2022-11-06T10:46:54.769Z,3.40
2022-11-06T10:49:36.112Z,3.43
2022-11-06T10:52:29.450Z,3.70
2022-11-06T10:55:23.343Z,3.17
2022-11-06T10:57:57.568Z,2.70
2022-11-06T11:00:25.646Z,3.00
2022-11-06T11:02:57.185Z,2.77
2022-11-06T11:05:28.128Z,3.07
2022-11-06T11:07:56.423Z,2.90
2022-11-06T11:10:31.906Z,3.70
2022-11-06T11:13:07.877Z,3.50
2022-11-06T11:15:45.243Z,2.53
2022-11-06T11:18:24.197Z,1.97
2022-11-06T11:21:08.175Z,3.50
2022-11-06T11:23:36.141Z,3.00
2022-11-06T11:26:27.619Z,2.03
2022-11-06T11:28:59.463Z,2.80
2022-11-06T11:31:31.637Z,2.40
2022-11-06T11:34:04.352Z,2.73
2022-11-06T11:36:53.171Z,2.53
2022-11-06T11:39:25.602Z,3.30
2022-11-06T11:41:55.350Z,2.00
2022-11-06T11:44:23.788Z,2.67
2022-11-06T11:46:54.136Z,2.07
2022-11-06T11:49:30.710Z,2.60
2022-11-06T11:52:01.679Z,2.40
2022-11-06T11:54:32.834Z,2.27
2022-11-06T11:57:07.467Z,2.20
2022-11-06T11:59:43.586Z,3.10
2022-11-06T12:02:25.312Z,2.30
2022-11-06T12:04:58.812Z,2.00
2022-11-06T12:07:33.236Z,2.60
2022-11-06T12:10:04.799Z,2.33
2022-11-06T12:12:35.578Z,2.30
2022-11-06T12:15:20.014Z,2.10
2022-11-06T12:17:53.472Z,2.20
2022-11-06T12:20:26.210Z,3.00
2022-11-06T12:22:57.236Z,2.20
2022-11-06T12:25:31.972Z,2.37
2022-11-06T12:28:03.586Z,2.10
2022-11-06T12:30:33.943Z,3.13
2022-11-06T12:33:11.581Z,2.00
2022-11-06T12:35:43.338Z,2.13
2022-11-06T12:38:25.423Z,2.17
2022-11-06T12:41:00.271Z,2.70
2022-11-06T12:43:37.451Z,3.60
2022-11-06T12:46:22.283Z,2.73
2022-11-06T12:49:42.860Z,4.23
2022-11-06T12:52:28.392Z,4.60
2022-11-06T12:55:15.208Z,4.00
2022-11-06T12:57:59.939Z,3.40
2022-11-06T13:00:37.995Z,3.27
2022-11-06T13:03:37.323Z,3.60
2022-11-06T13:06:14.082Z,4.60
2022-11-06T13:08:50.127Z,3.60
2022-11-06T13:11:32.470Z,4.00
2022-11-06T13:14:13.332Z,4.07
2022-11-06T13:16:52.399Z,3.40
2022-11-06T13:19:29.694Z,3.73
2022-11-06T13:22:11.002Z,3.73
2022-11-06T13:24:46.968Z,3.83
2022-11-06T13:27:26.815Z,4.00
2022-11-06T13:30:00.280Z,4.00
2022-11-06T13:32:34.004Z,3.50
2022-11-06T13:35:04.872Z,4.00
2022-11-06T13:37:40.671Z,3.90
2022-11-06T13:40:24.031Z,4.20
2022-11-06T13:42:58.318Z,3.30
2022-11-06T13:45:27.750Z,4.17
2022-11-06T13:48:08.080Z,3.83
2022-11-06T13:50:45.663Z,3.50
2022-11-06T13:53:22.475Z,3.07
2022-11-06T13:56:07.848Z,2.97
2022-11-06T13:59:22.321Z,3.10
2022-11-06T14:02:02.875Z,3.70
2022-11-06T14:05:26.897Z,3.67
2022-11-06T14:07:56.554Z,3.73
2022-11-06T14:10:29.947Z,5.07
2022-11-06T14:12:58.154Z,3.97
2022-11-06T14:15:33.285Z,4.07
2022-11-06T14:18:02.803Z,3.47
2022-11-06T14:20:36.553Z,3.03
2022-11-06T14:23:48.636Z,4.37
2022-11-06T14:26:42.900Z,2.90
2022-11-06T14:30:00.321Z,3.10
2022-11-06T14:32:46.790Z,3.47
2022-11-06T14:35:52.077Z,3.50
2022-11-06T14:38:36.141Z,3.20
2022-11-06T14:41:54.158Z,2.43
2022-11-06T14:44:39.766Z,3.23
2022-11-06T14:47:22.194Z,3.93
2022-11-06T14:49:54.211Z,3.70
2022-11-06T14:52:25.275Z,3.47
2022-11-06T14:55:04.385Z,2.87
2022-11-06T14:57:53.733Z,3.20
2022-11-06T15:00:45.425Z,2.77
2022-11-06T15:03:29.311Z,3.20
2022-11-06T15:06:05.490Z,3.23
2022-11-06T15:08:57.953Z,2.90
2022-11-06T15:11:58.835Z,3.00
2022-11-06T15:14:57.417Z,3.10
2022-11-06T15:17:28.655Z,2.50
2022-11-06T15:20:21.912Z,3.00
2022-11-06T15:23:00.555Z,2.43
2022-11-06T15:25:29.778Z,2.50
2022-11-06T15:28:05.156Z,3.23
2022-11-06T15:30:43.288Z,3.43
2022-11-06T15:33:18.574Z,2.23
2022-11-06T15:35:49.494Z,2.83
2022-11-06T15:38:21.304Z,2.33
2022-11-06T15:40:52.353Z,2.80
2022-11-06T15:43:28.946Z,2.23
2022-11-06T15:46:07.831Z,3.13
2022-11-06T15:48:36.018Z,2.80
2022-11-06T15:51:21.012Z,2.90
2022-11-06T15:53:48.944Z,2.30
2022-11-06T15:56:19.602Z,2.47
2022-11-06T15:58:47.672Z,3.27
2022-11-06T16:01:33.129Z,2.80
2022-11-06T16:04:04.445Z,2.83
2022-11-06T16:06:33.486Z,2.70
2022-11-06T16:09:02.954Z,2.60
2022-11-06T16:11:31.448Z,2.83
2022-11-06T16:13:59.857Z,2.10
2022-11-06T16:16:39.782Z,2.47
2022-11-06T16:19:26.402Z,2.33
2022-11-06T16:22:00.495Z,2.27
2022-11-06T16:24:32.667Z,2.50
2022-11-06T16:27:01.363Z,2.63
2022-11-06T16:29:30.840Z,2.63
2022-11-06T16:32:06.641Z,2.07
2022-11-06T16:34:43.810Z,2.60
2022-11-06T16:37:37.888Z,2.70
2022-11-06T16:40:48.366Z,2.63
2022-11-06T16:43:18.303Z,2.07
2022-11-06T16:45:56.051Z,2.47
2022-11-06T16:48:37.451Z,2.30
2022-11-06T16:51:11.957Z,2.27
2022-11-06T16:53:57.461Z,2.80
2022-11-06T16:56:29.161Z,2.73
2022-11-06T16:59:03.198Z,2.40
2022-11-06T17:01:40.001Z,1.70
2022-11-06T17:04:21.508Z,2.40
2022-11-06T17:06:50.515Z,1.77
2022-11-06T17:09:33.838Z,2.50
2022-11-06T17:12:04.608Z,2.30
2022-11-06T17:14:34.202Z,2.20
2022-11-06T17:17:03.235Z,1.93
2022-11-06T17:19:32.519Z,2.73
2022-11-06T17:22:00.779Z,2.57
2022-11-06T17:24:36.500Z,2.00
2022-11-06T17:27:06.288Z,1.97
2022-11-06T17:29:36.035Z,2.03
2022-11-06T17:32:04.793Z,1.93
2022-11-06T17:34:34.334Z,1.37
2022-11-06T17:37:02.475Z,2.40
2022-11-06T17:39:30.563Z,2.43
2022-11-06T17:41:58.492Z,2.20
2022-11-06T17:44:26.431Z,1.70
2022-11-06T17:46:54.402Z,2.20
2022-11-06T17:49:22.368Z,2.37
2022-11-06T17:51:53.236Z,2.40
2022-11-06T17:54:25.258Z,1.80
2022-11-06T17:56:54.511Z,1.93
2022-11-06T17:59:23.746Z,1.93
2022-11-06T18:01:52.417Z,2.17
2022-11-06T18:04:23.310Z,1.80
2022-11-06T18:06:54.177Z,1.70
2022-11-06T18:09:23.310Z,2.20
2022-11-06T18:11:53.624Z,2.43
2022-11-06T18:14:24.115Z,2.13
2022-11-06T18:16:52.267Z,3.60
2022-11-06T18:19:23.008Z,2.93
2022-11-06T18:21:52.406Z,3.00
2022-11-06T18:24:20.358Z,2.57
2022-11-06T18:26:48.599Z,2.73
2022-11-06T18:29:16.617Z,3.17
2022-11-06T18:31:44.611Z,3.20
2022-11-06T18:34:19.540Z,2.70
2022-11-06T18:36:48.837Z,3.20
2022-11-06T18:39:18.530Z,2.53
2022-11-06T18:41:46.506Z,2.77
2022-11-06T18:44:16.807Z,3.27
2022-11-06T18:46:45.162Z,4.27
2022-11-06T18:49:13.514Z,4.27
2022-11-06T18:51:41.528Z,3.90
2022-11-06T18:54:12.532Z,3.80
2022-11-06T18:56:41.907Z,3.30
2022-11-06T18:59:16.274Z,3.60
2022-11-06T19:01:44.342Z,3.10
2022-11-06T19:04:12.838Z,3.97
2022-11-06T19:06:40.952Z,3.33
2022-11-06T19:09:10.333Z,3.20
2022-11-06T19:11:38.263Z,3.40
2022-11-06T19:14:07.963Z,3.60
2022-11-06T19:16:35.904Z,3.53
2022-11-06T19:19:05.439Z,3.43
2022-11-06T19:21:34.457Z,3.70
2022-11-06T19:24:05.652Z,2.53
2022-11-06T19:26:35.771Z,2.90
2022-11-06T19:29:05.042Z,3.10
2022-11-06T19:31:34.936Z,3.70
2022-11-06T19:34:04.614Z,3.20
2022-11-06T19:36:33.082Z,3.90
2022-11-06T19:39:01.219Z,3.27
2022-11-06T19:41:29.995Z,2.60
2022-11-06T19:43:58.310Z,3.43
2022-11-06T19:46:31.091Z,3.17
2022-11-06T19:49:04.830Z,3.57
2022-11-06T19:51:33.284Z,3.07
2022-11-06T19:54:01.859Z,4.30
2022-11-06T19:56:29.796Z,4.70
2022-11-06T19:58:58.000Z,4.40
2022-11-06T20:01:26.102Z,3.57
2022-11-06T20:03:54.255Z,4.30
2022-11-06T20:06:23.750Z,3.50
2022-11-06T20:08:51.841Z,3.87
2022-11-06T20:11:19.788Z,3.10
2022-11-06T20:13:48.039Z,4.00
2022-11-06T20:16:18.598Z,3.10
2022-11-06T20:18:52.548Z,3.50
2022-11-06T20:21:20.925Z,3.03
2022-11-06T20:23:50.966Z,3.63
2022-11-06T20:26:19.656Z,3.70
2022-11-06T20:28:48.424Z,3.23
2022-11-06T20:31:20.014Z,3.10
2022-11-06T20:33:48.670Z,2.83
2022-11-06T20:36:20.405Z,3.50
2022-11-06T20:38:50.122Z,3.90
2022-11-06T20:41:18.303Z,3.30
2022-11-06T20:43:46.686Z,3.93
2022-11-06T20:46:16.967Z,3.57
2022-11-06T20:48:45.864Z,3.33
2022-11-06T20:51:16.213Z,2.80
2022-11-06T20:53:44.839Z,3.37
2022-11-06T20:56:17.382Z,3.80
2022-11-06T20:58:45.903Z,3.43
2022-11-06T21:01:18.094Z,2.73
2022-11-06T21:03:47.475Z,2.87
2022-11-06T21:06:15.774Z,3.37
2022-11-06T21:08:44.607Z,3.27
2022-11-06T21:11:17.899Z,3.30
2022-11-06T21:13:54.254Z,3.20
2022-11-06T21:16:25.978Z,3.30
2022-11-06T21:18:54.671Z,3.60
2022-11-06T21:21:25.677Z,2.90
2022-11-06T21:23:54.671Z,2.80
2022-11-06T21:26:27.155Z,3.10
2022-11-06T21:28:55.940Z,3.00
2022-11-06T21:31:26.747Z,2.53
2022-11-06T21:33:57.863Z,2.90
2022-11-06T21:36:28.912Z,2.90
2022-11-06T21:39:00.403Z,3.50
2022-11-06T21:41:33.912Z,2.50
2022-11-06T21:44:02.874Z,2.30
2022-11-06T21:46:31.132Z,2.67
2022-11-06T21:49:00.187Z,2.77
2022-11-06T21:51:30.921Z,3.23
2022-11-06T21:54:17.184Z,2.93
2022-11-06T21:56:49.127Z,2.80
2022-11-06T21:59:20.455Z,2.50
2022-11-06T22:01:48.459Z,2.60
2022-11-06T22:04:16.533Z,3.00
2022-11-06T22:06:45.138Z,2.70
2022-11-06T22:09:18.373Z,2.20
2022-11-06T22:11:50.044Z,2.47
2022-11-06T22:14:18.463Z,2.20
2022-11-06T22:16:48.420Z,2.33
2022-11-06T22:19:17.726Z,2.77
2022-11-06T22:21:45.845Z,2.93
2022-11-06T22:24:15.290Z,2.33
2022-11-06T22:26:43.522Z,2.80
2022-11-06T22:29:15.113Z,2.60
2022-11-06T22:31:43.267Z,2.00
2022-11-06T22:34:12.032Z,2.63
2022-11-06T22:36:40.421Z,2.30
2022-11-06T22:39:09.987Z,2.13
2022-11-06T22:41:38.434Z,2.13
2022-11-06T22:44:07.122Z,2.20
2022-11-06T22:46:37.106Z,2.20
2022-11-06T22:49:05.682Z,3.03
2022-11-06T22:51:34.666Z,2.60
2022-11-06T22:54:03.969Z,2.57
2022-11-06T22:56:32.629Z,1.90
2022-11-06T22:59:03.119Z,2.30
2022-11-06T23:01:37.464Z,2.80
2022-11-06T23:04:15.660Z,2.47
2022-11-06T23:06:44.958Z,1.87
2022-11-06T23:09:13.439Z,2.40
2022-11-06T23:11:41.755Z,2.23
2022-11-06T23:14:09.823Z,2.00
2022-11-06T23:16:55.604Z,2.47
2022-11-06T23:19:26.085Z,2.20
2022-11-06T23:22:15.129Z,2.13
2022-11-06T23:24:43.720Z,2.27
2022-11-06T23:27:12.214Z,2.10
2022-11-06T23:29:40.899Z,1.70
2022-11-06T23:32:09.205Z,1.87
2022-11-06T23:34:38.504Z,1.67
2022-11-06T23:37:06.442Z,2.23
2022-11-06T23:39:34.392Z,2.60
2022-11-06T23:42:02.379Z,1.97
2022-11-06T23:44:47.802Z,1.80
2022-11-06T23:47:15.817Z,2.27
2022-11-06T23:49:45.075Z,2.40
2022-11-06T23:52:13.027Z,2.00
2022-11-06T23:54:40.985Z,1.90
2022-11-06T23:57:09.711Z,2.40
2022-11-06T23:59:37.699Z,2.47
